Terminal Aerodrome Forecast
Issued by NWS

Home | Current Version | Previous Version | Text Only | Print | Product List | Glossary On
Versions: 1 2 3 4 5 6 7 8 9 10 11 12 13 14 15 16 17 18 19
000
FTUS46 KSGX 222337
TAFCRQ
TAF
KCRQ 222337Z 2300/2324 24008KT P6SM SCT012
     FM230100 VRB04KT P6SM BKN010
     FM230400 VRB04KT 3SM BR OVC007
     FM231200 VRB04KT 2SM BR OVC005
     FM231600 VRB04KT 4SM HZ OVC008
     FM232000 26008KT P6SM SCT010=

USA.gov is the U.S. government's official web portal to all federal, state and local government web resources and services.